sensor_id;sensor_type;location;lat;lon;timestamp;temperature;humidity
70079;DHT22;57451;52.496;13.456;2022-11-22T00:00:24;-1.50;76.60
70079;DHT22;57451;52.496;13.456;2022-11-22T00:02:51;-1.50;76.70
70079;DHT22;57451;52.496;13.456;2022-11-22T00:05:19;-1.50;76.60
70079;DHT22;57451;52.496;13.456;2022-11-22T00:07:46;-1.60;76.90
70079;DHT22;57451;52.496;13.456;2022-11-22T00:10:14;-1.50;76.70
70079;DHT22;57451;52.496;13.456;2022-11-22T00:12:41;-1.50;76.80
70079;DHT22;57451;52.496;13.456;2022-11-22T00:15:10;-1.50;76.90
70079;DHT22;57451;52.496;13.456;2022-11-22T00:17:39;-1.40;76.60
70079;DHT22;57451;52.496;13.456;2022-11-22T00:20:07;-1.50;76.70
70079;DHT22;57451;52.496;13.456;2022-11-22T00:22:36;-1.60;76.90
70079;DHT22;57451;52.496;13.456;2022-11-22T00:25:11;-1.50;76.90
70079;DHT22;57451;52.496;13.456;2022-11-22T00:27:38;-1.50;76.60
70079;DHT22;57451;52.496;13.456;2022-11-22T00:30:06;-1.40;76.50
70079;DHT22;57451;52.496;13.456;2022-11-22T00:32:34;-1.50;76.40
70079;DHT22;57451;52.496;13.456;2022-11-22T00:35:03;-1.50;76.30
70079;DHT22;57451;52.496;13.456;2022-11-22T00:37:30;-1.50;76.30
70079;DHT22;57451;52.496;13.456;2022-11-22T00:39:58;-1.50;76.10
70079;DHT22;57451;52.496;13.456;2022-11-22T00:42:25;-1.50;76.40
70079;DHT22;57451;52.496;13.456;2022-11-22T00:44:52;-1.50;76.40
70079;DHT22;57451;52.496;13.456;2022-11-22T00:47:19;-1.60;76.60
70079;DHT22;57451;52.496;13.456;2022-11-22T00:49:46;-1.60;76.60
70079;DHT22;57451;52.496;13.456;2022-11-22T00:52:15;-1.60;76.90
70079;DHT22;57451;52.496;13.456;2022-11-22T00:54:42;-1.60;77.10
70079;DHT22;57451;52.496;13.456;2022-11-22T00:57:19;-1.60;76.90
70079;DHT22;57451;52.496;13.456;2022-11-22T00:59:46;-1.50;76.80
70079;DHT22;57451;52.496;13.456;2022-11-22T01:02:13;-1.50;76.90
70079;DHT22;57451;52.496;13.456;2022-11-22T01:04:40;-1.50;77.20
70079;DHT22;57451;52.496;13.456;2022-11-22T01:07:08;-1.50;77.10
70079;DHT22;57451;52.496;13.456;2022-11-22T01:09:37;-1.50;77.40
70079;DHT22;57451;52.496;13.456;2022-11-22T01:12:04;-1.50;77.30
70079;DHT22;57451;52.496;13.456;2022-11-22T01:14:32;-1.50;77.30
70079;DHT22;57451;52.496;13.456;2022-11-22T01:16:59;-1.50;77.10
70079;DHT22;57451;52.496;13.456;2022-11-22T01:19:26;-1.50;77.40
70079;DHT22;57451;52.496;13.456;2022-11-22T01:21:54;-1.50;77.30
70079;DHT22;57451;52.496;13.456;2022-11-22T01:24:21;-1.50;77.40
70079;DHT22;57451;52.496;13.456;2022-11-22T01:26:50;-1.50;77.40
70079;DHT22;57451;52.496;13.456;2022-11-22T01:29:17;-1.50;77.50
70079;DHT22;57451;52.496;13.456;2022-11-22T01:31:44;-1.40;77.30
70079;DHT22;57451;52.496;13.456;2022-11-22T01:34:11;-1.50;77.20
70079;DHT22;57451;52.496;13.456;2022-11-22T01:36:39;-1.50;77.50
70079;DHT22;57451;52.496;13.456;2022-11-22T01:39:06;-1.50;77.50
70079;DHT22;57451;52.496;13.456;2022-11-22T01:41:33;-1.50;77.50
70079;DHT22;57451;52.496;13.456;2022-11-22T01:44:21;-1.50;77.40
70079;DHT22;57451;52.496;13.456;2022-11-22T01:46:50;-1.50;77.60
70079;DHT22;57451;52.496;13.456;2022-11-22T01:49:24;-1.50;77.50
70079;DHT22;57451;52.496;13.456;2022-11-22T01:51:57;-1.50;77.80
70079;DHT22;57451;52.496;13.456;2022-11-22T01:54:28;-1.50;77.80
70079;DHT22;57451;52.496;13.456;2022-11-22T01:57:01;-1.50;77.60
70079;DHT22;57451;52.496;13.456;2022-11-22T01:59:33;-1.50;77.70
70079;DHT22;57451;52.496;13.456;2022-11-22T02:02:02;-1.50;77.70
70079;DHT22;57451;52.496;13.456;2022-11-22T02:04:31;-1.50;77.90
70079;DHT22;57451;52.496;13.456;2022-11-22T02:07:04;-1.50;77.70
70079;DHT22;57451;52.496;13.456;2022-11-22T02:09:34;-1.50;77.80
70079;DHT22;57451;52.496;13.456;2022-11-22T02:12:04;-1.50;77.90
70079;DHT22;57451;52.496;13.456;2022-11-22T02:14:34;-1.50;77.90
70079;DHT22;57451;52.496;13.456;2022-11-22T02:17:02;-1.50;78.10
70079;DHT22;57451;52.496;13.456;2022-11-22T02:19:35;-1.50;78.30
70079;DHT22;57451;52.496;13.456;2022-11-22T02:22:13;-1.50;78.40
70079;DHT22;57451;52.496;13.456;2022-11-22T02:24:43;-1.50;78.60
70079;DHT22;57451;52.496;13.456;2022-11-22T02:27:13;-1.50;78.40
70079;DHT22;57451;52.496;13.456;2022-11-22T02:29:41;-1.50;78.30
70079;DHT22;57451;52.496;13.456;2022-11-22T02:32:08;-1.50;78.20
70079;DHT22;57451;52.496;13.456;2022-11-22T02:34:44;-1.40;78.20
70079;DHT22;57451;52.496;13.456;2022-11-22T02:37:15;-1.40;78.00
70079;DHT22;57451;52.496;13.456;2022-11-22T02:39:44;-1.40;78.00
70079;DHT22;57451;52.496;13.456;2022-11-22T02:42:13;-1.40;77.90
70079;DHT22;57451;52.496;13.456;2022-11-22T02:44:41;-1.40;77.90
70079;DHT22;57451;52.496;13.456;2022-11-22T02:47:08;-1.40;77.70
70079;DHT22;57451;52.496;13.456;2022-11-22T02:49:35;-1.40;77.60
70079;DHT22;57451;52.496;13.456;2022-11-22T02:52:03;-1.50;77.90
70079;DHT22;57451;52.496;13.456;2022-11-22T02:54:30;-1.50;77.80
70079;DHT22;57451;52.496;13.456;2022-11-22T02:56:57;-1.50;78.10
70079;DHT22;57451;52.496;13.456;2022-11-22T02:59:26;-1.50;77.90
70079;DHT22;57451;52.496;13.456;2022-11-22T03:01:54;-1.60;78.20
70079;DHT22;57451;52.496;13.456;2022-11-22T03:04:29;-1.50;78.30
70079;DHT22;57451;52.496;13.456;2022-11-22T03:09:19;-1.50;78.10
70079;DHT22;57451;52.496;13.456;2022-11-22T03:11:46;-1.40;78.20
70079;DHT22;57451;52.496;13.456;2022-11-22T03:14:14;-1.50;78.00
70079;DHT22;57451;52.496;13.456;2022-11-22T03:16:42;-1.50;78.00
70079;DHT22;57451;52.496;13.456;2022-11-22T03:19:09;-1.40;78.00
70079;DHT22;57451;52.496;13.456;2022-11-22T03:21:38;-1.50;77.90
70079;DHT22;57451;52.496;13.456;2022-11-22T03:24:06;-1.50;77.90
70079;DHT22;57451;52.496;13.456;2022-11-22T03:26:35;-1.50;78.20
70079;DHT22;57451;52.496;13.456;2022-11-22T03:29:02;-1.50;78.10
70079;DHT22;57451;52.496;13.456;2022-11-22T03:31:30;-1.50;78.10
70079;DHT22;57451;52.496;13.456;2022-11-22T03:33:57;-1.50;78.00
70079;DHT22;57451;52.496;13.456;2022-11-22T03:36:24;-1.50;78.10
70079;DHT22;57451;52.496;13.456;2022-11-22T03:38:51;-1.50;78.30
70079;DHT22;57451;52.496;13.456;2022-11-22T03:41:19;-1.50;78.20
70079;DHT22;57451;52.496;13.456;2022-11-22T03:43:47;-1.50;78.10
70079;DHT22;57451;52.496;13.456;2022-11-22T03:46:15;-1.40;78.20
70079;DHT22;57451;52.496;13.456;2022-11-22T03:48:43;-1.50;78.10
70079;DHT22;57451;52.496;13.456;2022-11-22T03:51:10;-1.50;78.00
70079;DHT22;57451;52.496;13.456;2022-11-22T03:53:37;-1.50;78.10
70079;DHT22;57451;52.496;13.456;2022-11-22T03:56:05;-1.50;78.30
70079;DHT22;57451;52.496;13.456;2022-11-22T03:58:33;-1.50;78.30
70079;DHT22;57451;52.496;13.456;2022-11-22T04:01:01;-1.40;78.10
70079;DHT22;57451;52.496;13.456;2022-11-22T04:03:29;-1.40;78.00
70079;DHT22;57451;52.496;13.456;2022-11-22T04:05:57;-1.40;77.90
70079;DHT22;57451;52.496;13.456;2022-11-22T04:08:24;-1.40;77.90
70079;DHT22;57451;52.496;13.456;2022-11-22T04:10:51;-1.40;77.80
70079;DHT22;57451;52.496;13.456;2022-11-22T04:13:19;-1.40;77.80
70079;DHT22;57451;52.496;13.456;2022-11-22T04:15:46;-1.40;78.10
70079;DHT22;57451;52.496;13.456;2022-11-22T04:18:14;-1.40;78.00
70079;DHT22;57451;52.496;13.456;2022-11-22T04:20:42;-1.40;78.00
70079;DHT22;57451;52.496;13.456;2022-11-22T04:23:28;-1.40;78.30
70079;DHT22;57451;52.496;13.456;2022-11-22T04:26:00;-1.30;78.30
70079;DHT22;57451;52.496;13.456;2022-11-22T04:28:28;-1.30;78.40
70079;DHT22;57451;52.496;13.456;2022-11-22T04:31:15;-1.40;78.20
70079;DHT22;57451;52.496;13.456;2022-11-22T04:34:03;-1.40;78.60
70079;DHT22;57451;52.496;13.456;2022-11-22T04:36:30;-1.40;78.70
70079;DHT22;57451;52.496;13.456;2022-11-22T04:38:57;-1.40;78.90
70079;DHT22;57451;52.496;13.456;2022-11-22T04:41:24;-1.40;79.00
70079;DHT22;57451;52.496;13.456;2022-11-22T04:43:51;-1.40;79.50
70079;DHT22;57451;52.496;13.456;2022-11-22T04:46:37;-1.30;79.20
70079;DHT22;57451;52.496;13.456;2022-11-22T04:49:06;-1.30;79.10
70079;DHT22;57451;52.496;13.456;2022-11-22T04:51:33;-1.30;79.00
70079;DHT22;57451;52.496;13.456;2022-11-22T04:54:19;-1.20;79.00
70079;DHT22;57451;52.496;13.456;2022-11-22T04:56:46;-1.20;78.80
70079;DHT22;57451;52.496;13.456;2022-11-22T04:59:14;-1.10;78.80
70079;DHT22;57451;52.496;13.456;2022-11-22T05:01:41;-1.10;78.80
70079;DHT22;57451;52.496;13.456;2022-11-22T05:04:10;-1.10;78.90
70079;DHT22;57451;52.496;13.456;2022-11-22T05:06:37;-1.10;78.90
70079;DHT22;57451;52.496;13.456;2022-11-22T05:09:04;-1.00;78.90
70079;DHT22;57451;52.496;13.456;2022-11-22T05:11:31;-1.00;78.70
70079;DHT22;57451;52.496;13.456;2022-11-22T05:13:59;-1.00;78.90
70079;DHT22;57451;52.496;13.456;2022-11-22T05:16:26;-1.00;79.10
70079;DHT22;57451;52.496;13.456;2022-11-22T05:18:53;-1.10;79.20
70079;DHT22;57451;52.496;13.456;2022-11-22T05:21:28;-1.10;79.70
70079;DHT22;57451;52.496;13.456;2022-11-22T05:23:56;-1.00;79.80
70079;DHT22;57451;52.496;13.456;2022-11-22T05:26:24;-1.00;79.60
70079;DHT22;57451;52.496;13.456;2022-11-22T05:28:52;-0.90;79.60
70079;DHT22;57451;52.496;13.456;2022-11-22T05:31:21;-0.90;79.40
70079;DHT22;57451;52.496;13.456;2022-11-22T05:33:55;-0.80;79.30
70079;DHT22;57451;52.496;13.456;2022-11-22T05:36:23;-0.80;79.20
70079;DHT22;57451;52.496;13.456;2022-11-22T05:38:53;-0.80;79.10
70079;DHT22;57451;52.496;13.456;2022-11-22T05:41:20;-0.80;79.10
70079;DHT22;57451;52.496;13.456;2022-11-22T05:43:47;-0.80;79.30
70079;DHT22;57451;52.496;13.456;2022-11-22T05:46:17;-0.80;79.40
70079;DHT22;57451;52.496;13.456;2022-11-22T05:48:50;-0.90;79.70
70079;DHT22;57451;52.496;13.456;2022-11-22T05:51:19;-0.80;79.60
70079;DHT22;57451;52.496;13.456;2022-11-22T05:53:47;-0.80;79.50
70079;DHT22;57451;52.496;13.456;2022-11-22T05:56:17;-0.80;79.70
70079;DHT22;57451;52.496;13.456;2022-11-22T05:58:45;-0.80;79.90
70079;DHT22;57451;52.496;13.456;2022-11-22T06:01:14;-0.80;79.70
70079;DHT22;57451;52.496;13.456;2022-11-22T06:03:42;-0.70;79.50
70079;DHT22;57451;52.496;13.456;2022-11-22T06:06:10;-0.70;79.80
70079;DHT22;57451;52.496;13.456;2022-11-22T06:08:38;-0.80;79.50
70079;DHT22;57451;52.496;13.456;2022-11-22T06:11:08;-0.70;79.80
70079;DHT22;57451;52.496;13.456;2022-11-22T06:13:39;-0.70;79.60
70079;DHT22;57451;52.496;13.456;2022-11-22T06:16:07;-0.70;79.40
70079;DHT22;57451;52.496;13.456;2022-11-22T06:18:35;-0.60;79.60
70079;DHT22;57451;52.496;13.456;2022-11-22T06:21:04;-0.60;79.50
70079;DHT22;57451;52.496;13.456;2022-11-22T06:23:32;-0.60;79.30
70079;DHT22;57451;52.496;13.456;2022-11-22T06:26:02;-0.60;79.10
70079;DHT22;57451;52.496;13.456;2022-11-22T06:28:31;-0.60;79.10
70079;DHT22;57451;52.496;13.456;2022-11-22T06:31:01;-0.50;79.10
70079;DHT22;57451;52.496;13.456;2022-11-22T06:33:28;-0.50;78.90
70079;DHT22;57451;52.496;13.456;2022-11-22T06:36:00;-0.50;79.00
70079;DHT22;57451;52.496;13.456;2022-11-22T06:38:28;-0.50;79.00
70079;DHT22;57451;52.496;13.456;2022-11-22T06:40:58;-0.50;79.00
70079;DHT22;57451;52.496;13.456;2022-11-22T06:43:26;-0.60;79.40
70079;DHT22;57451;52.496;13.456;2022-11-22T06:45:54;-0.60;79.40
70079;DHT22;57451;52.496;13.456;2022-11-22T06:48:23;-0.60;79.40
70079;DHT22;57451;52.496;13.456;2022-11-22T06:50:51;-0.60;79.30
70079;DHT22;57451;52.496;13.456;2022-11-22T06:53:18;-0.60;79.30
70079;DHT22;57451;52.496;13.456;2022-11-22T06:56:06;-0.60;79.50
70079;DHT22;57451;52.496;13.456;2022-11-22T06:58:34;-0.50;79.30
70079;DHT22;57451;52.496;13.456;2022-11-22T07:01:03;-0.50;79.20
70079;DHT22;57451;52.496;13.456;2022-11-22T07:03:33;-0.50;79.30
70079;DHT22;57451;52.496;13.456;2022-11-22T07:06:01;-0.50;79.40
70079;DHT22;57451;52.496;13.456;2022-11-22T07:08:29;-0.40;79.40
70079;DHT22;57451;52.496;13.456;2022-11-22T07:11:00;-0.40;79.10
70079;DHT22;57451;52.496;13.456;2022-11-22T07:13:28;-0.40;78.90
70079;DHT22;57451;52.496;13.456;2022-11-22T07:15:55;-0.30;79.10
70079;DHT22;57451;52.496;13.456;2022-11-22T07:18:23;-0.40;78.80
70079;DHT22;57451;52.496;13.456;2022-11-22T07:20:58;-0.30;79.10
70079;DHT22;57451;52.496;13.456;2022-11-22T07:23:25;-0.30;80.50
70079;DHT22;57451;52.496;13.456;2022-11-22T07:25:53;-0.30;81.10
70079;DHT22;57451;52.496;13.456;2022-11-22T07:28:20;-0.30;80.50
70079;DHT22;57451;52.496;13.456;2022-11-22T07:30:47;-0.30;79.80
70079;DHT22;57451;52.496;13.456;2022-11-22T07:33:15;-0.30;79.50
70079;DHT22;57451;52.496;13.456;2022-11-22T07:35:42;-0.30;79.40
70079;DHT22;57451;52.496;13.456;2022-11-22T07:38:11;-0.30;79.40
70079;DHT22;57451;52.496;13.456;2022-11-22T07:40:38;-0.30;79.20
70079;DHT22;57451;52.496;13.456;2022-11-22T07:43:05;-0.30;79.40
70079;DHT22;57451;52.496;13.456;2022-11-22T07:45:32;-0.30;79.10
70079;DHT22;57451;52.496;13.456;2022-11-22T07:48:00;-0.20;79.10
70079;DHT22;57451;52.496;13.456;2022-11-22T07:50:27;-0.30;79.40
70079;DHT22;57451;52.496;13.456;2022-11-22T07:52:55;-0.30;79.30
70079;DHT22;57451;52.496;13.456;2022-11-22T07:55:24;-0.30;79.60
70079;DHT22;57451;52.496;13.456;2022-11-22T07:57:53;-0.20;79.40
70079;DHT22;57451;52.496;13.456;2022-11-22T08:00:20;-0.20;79.30
70079;DHT22;57451;52.496;13.456;2022-11-22T08:02:47;-0.20;79.40
70079;DHT22;57451;52.496;13.456;2022-11-22T08:05:15;-0.10;79.30
70079;DHT22;57451;52.496;13.456;2022-11-22T08:07:46;-0.20;79.30
70079;DHT22;57451;52.496;13.456;2022-11-22T08:10:14;-0.10;79.30
70079;DHT22;57451;52.496;13.456;2022-11-22T08:12:43;-0.20;79.30
70079;DHT22;57451;52.496;13.456;2022-11-22T08:15:12;-0.20;79.40
70079;DHT22;57451;52.496;13.456;2022-11-22T08:17:40;-0.20;79.80
70079;DHT22;57451;52.496;13.456;2022-11-22T08:20:08;-0.10;79.80
70079;DHT22;57451;52.496;13.456;2022-11-22T08:22:36;-0.10;79.70
70079;DHT22;57451;52.496;13.456;2022-11-22T08:25:04;-0.10;79.70
70079;DHT22;57451;52.496;13.456;2022-11-22T08:27:34;-0.20;79.70
70079;DHT22;57451;52.496;13.456;2022-11-22T08:30:03;-0.10;80.00
70079;DHT22;57451;52.496;13.456;2022-11-22T08:32:31;-0.20;79.90
70079;DHT22;57451;52.496;13.456;2022-11-22T08:34:58;-0.20;79.90
70079;DHT22;57451;52.496;13.456;2022-11-22T08:37:25;-0.10;80.10
70079;DHT22;57451;52.496;13.456;2022-11-22T08:39:52;-0.10;80.10
70079;DHT22;57451;52.496;13.456;2022-11-22T08:42:19;-0.10;80.00
70079;DHT22;57451;52.496;13.456;2022-11-22T08:44:47;-0.10;80.00
70079;DHT22;57451;52.496;13.456;2022-11-22T08:47:15;-0.10;80.10
70079;DHT22;57451;52.496;13.456;2022-11-22T08:49:43;0.00;80.30
70079;DHT22;57451;52.496;13.456;2022-11-22T08:52:10;0.00;80.10
70079;DHT22;57451;52.496;13.456;2022-11-22T08:54:37;0.00;80.30
70079;DHT22;57451;52.496;13.456;2022-11-22T08:57:05;0.00;80.20
70079;DHT22;57451;52.496;13.456;2022-11-22T08:59:32;0.10;80.00
70079;DHT22;57451;52.496;13.456;2022-11-22T09:02:00;0.10;80.00
70079;DHT22;57451;52.496;13.456;2022-11-22T09:04:28;0.00;80.10
70079;DHT22;57451;52.496;13.456;2022-11-22T09:06:56;0.00;80.40
70079;DHT22;57451;52.496;13.456;2022-11-22T09:09:43;0.10;80.20
70079;DHT22;57451;52.496;13.456;2022-11-22T09:12:11;0.10;80.40
70079;DHT22;57451;52.496;13.456;2022-11-22T09:14:38;0.10;80.30
70079;DHT22;57451;52.496;13.456;2022-11-22T09:17:06;0.10;80.40
70079;DHT22;57451;52.496;13.456;2022-11-22T09:19:37;0.20;80.40
70079;DHT22;57451;52.496;13.456;2022-11-22T09:22:04;0.20;80.30
70079;DHT22;57451;52.496;13.456;2022-11-22T09:24:31;0.20;80.20
70079;DHT22;57451;52.496;13.456;2022-11-22T09:26:59;0.30;80.30
70079;DHT22;57451;52.496;13.456;2022-11-22T09:29:26;0.30;79.90
70079;DHT22;57451;52.496;13.456;2022-11-22T09:31:54;0.40;79.90
70079;DHT22;57451;52.496;13.456;2022-11-22T09:34:22;0.40;79.90
70079;DHT22;57451;52.496;13.456;2022-11-22T09:36:50;0.40;80.00
70079;DHT22;57451;52.496;13.456;2022-11-22T09:39:18;0.50;80.00
70079;DHT22;57451;52.496;13.456;2022-11-22T09:45:01;0.50;80.00
70079;DHT22;57451;52.496;13.456;2022-11-22T09:47:38;0.60;79.90
70079;DHT22;57451;52.496;13.456;2022-11-22T09:50:13;0.50;79.90
70079;DHT22;57451;52.496;13.456;2022-11-22T09:52:50;0.60;80.10
70079;DHT22;57451;52.496;13.456;2022-11-22T09:55:22;0.60;80.10
70079;DHT22;57451;52.496;13.456;2022-11-22T09:58:01;0.60;79.80
70079;DHT22;57451;52.496;13.456;2022-11-22T10:00:30;0.60;79.90
70079;DHT22;57451;52.496;13.456;2022-11-22T10:03:02;0.60;80.10
70079;DHT22;57451;52.496;13.456;2022-11-22T10:05:37;0.70;79.90
70079;DHT22;57451;52.496;13.456;2022-11-22T10:08:19;0.70;79.90
70079;DHT22;57451;52.496;13.456;2022-11-22T10:10:52;0.60;79.90
70079;DHT22;57451;52.496;13.456;2022-11-22T10:13:24;0.70;80.10
70079;DHT22;57451;52.496;13.456;2022-11-22T10:15:59;0.70;79.80
70079;DHT22;57451;52.496;13.456;2022-11-22T10:18:36;0.70;79.90
70079;DHT22;57451;52.496;13.456;2022-11-22T10:21:08;0.80;79.70
70079;DHT22;57451;52.496;13.456;2022-11-22T10:23:38;0.80;80.00
70079;DHT22;57451;52.496;13.456;2022-11-22T10:26:14;0.90;79.70
70079;DHT22;57451;52.496;13.456;2022-11-22T10:28:51;0.80;79.80
70079;DHT22;57451;52.496;13.456;2022-11-22T10:31:25;0.90;79.90
70079;DHT22;57451;52.496;13.456;2022-11-22T10:34:00;0.90;79.80
70079;DHT22;57451;52.496;13.456;2022-11-22T10:36:34;0.90;79.80
70079;DHT22;57451;52.496;13.456;2022-11-22T10:39:19;0.90;79.70
70079;DHT22;57451;52.496;13.456;2022-11-22T10:41:59;1.00;79.60
70079;DHT22;57451;52.496;13.456;2022-11-22T10:44:40;1.00;79.60
70079;DHT22;57451;52.496;13.456;2022-11-22T10:47:17;1.00;79.60
70079;DHT22;57451;52.496;13.456;2022-11-22T10:49:53;0.90;79.90
70079;DHT22;57451;52.496;13.456;2022-11-22T10:52:29;1.00;80.10
70079;DHT22;57451;52.496;13.456;2022-11-22T10:55:08;1.00;80.10
70079;DHT22;57451;52.496;13.456;2022-11-22T10:57:45;1.00;80.20
70079;DHT22;57451;52.496;13.456;2022-11-22T11:00:17;1.00;80.40
70079;DHT22;57451;52.496;13.456;2022-11-22T11:03:09;1.10;80.30
70079;DHT22;57451;52.496;13.456;2022-11-22T11:05:42;1.10;80.10
70079;DHT22;57451;52.496;13.456;2022-11-22T11:08:37;1.10;80.30
70079;DHT22;57451;52.496;13.456;2022-11-22T11:11:26;1.20;80.30
70079;DHT22;57451;52.496;13.456;2022-11-22T11:13:57;1.20;80.10
70079;DHT22;57451;52.496;13.456;2022-11-22T11:16:30;1.30;79.90
70079;DHT22;57451;52.496;13.456;2022-11-22T11:19:06;1.30;79.80
70079;DHT22;57451;52.496;13.456;2022-11-22T11:21:37;1.30;80.00
70079;DHT22;57451;52.496;13.456;2022-11-22T11:24:11;1.30;80.00
70079;DHT22;57451;52.496;13.456;2022-11-22T11:26:41;1.40;80.00
70079;DHT22;57451;52.496;13.456;2022-11-22T11:29:42;1.40;80.00
70079;DHT22;57451;52.496;13.456;2022-11-22T11:32:13;1.40;79.90
70079;DHT22;57451;52.496;13.456;2022-11-22T11:34:47;1.50;79.70
70079;DHT22;57451;52.496;13.456;2022-11-22T11:37:22;1.50;79.80
70079;DHT22;57451;52.496;13.456;2022-11-22T11:39:50;1.50;79.70
70079;DHT22;57451;52.496;13.456;2022-11-22T11:42:23;1.50;79.70
70079;DHT22;57451;52.496;13.456;2022-11-22T11:44:51;1.50;79.70
70079;DHT22;57451;52.496;13.456;2022-11-22T11:47:25;1.60;79.90
70079;DHT22;57451;52.496;13.456;2022-11-22T11:49:57;1.60;79.70
70079;DHT22;57451;52.496;13.456;2022-11-22T11:52:24;1.50;79.90
70079;DHT22;57451;52.496;13.456;2022-11-22T11:54:56;1.60;80.10
70079;DHT22;57451;52.496;13.456;2022-11-22T11:57:28;1.60;80.10
70079;DHT22;57451;52.496;13.456;2022-11-22T11:59:57;1.60;80.10
70079;DHT22;57451;52.496;13.456;2022-11-22T12:02:31;1.70;79.90
70079;DHT22;57451;52.496;13.456;2022-11-22T12:05:02;1.80;79.90
70079;DHT22;57451;52.496;13.456;2022-11-22T12:07:38;1.80;79.50
70079;DHT22;57451;52.496;13.456;2022-11-22T12:10:32;1.80;79.30
70079;DHT22;57451;52.496;13.456;2022-11-22T12:13:08;1.90;79.30
70079;DHT22;57451;52.496;13.456;2022-11-22T12:15:46;1.80;79.40
70079;DHT22;57451;52.496;13.456;2022-11-22T12:18:31;1.90;79.50
70079;DHT22;57451;52.496;13.456;2022-11-22T12:21:11;1.90;79.20
70079;DHT22;57451;52.496;13.456;2022-11-22T12:23:46;2.00;79.10
70079;DHT22;57451;52.496;13.456;2022-11-22T12:26:36;2.00;79.10
70079;DHT22;57451;52.496;13.456;2022-11-22T12:29:07;2.00;79.10
70079;DHT22;57451;52.496;13.456;2022-11-22T12:31:38;2.00;78.90
70079;DHT22;57451;52.496;13.456;2022-11-22T12:34:13;2.00;79.00
70079;DHT22;57451;52.496;13.456;2022-11-22T12:36:45;2.10;79.10
70079;DHT22;57451;52.496;13.456;2022-11-22T12:39:16;2.00;79.00
70079;DHT22;57451;52.496;13.456;2022-11-22T12:41:45;2.00;79.00
70079;DHT22;57451;52.496;13.456;2022-11-22T12:44:18;2.00;79.00
70079;DHT22;57451;52.496;13.456;2022-11-22T12:46:49;2.00;79.10
70079;DHT22;57451;52.496;13.456;2022-11-22T12:49:29;2.10;79.20
70079;DHT22;57451;52.496;13.456;2022-11-22T12:52:05;2.10;79.10
70079;DHT22;57451;52.496;13.456;2022-11-22T12:54:39;2.10;79.20
70079;DHT22;57451;52.496;13.456;2022-11-22T12:57:13;2.10;79.10
70079;DHT22;57451;52.496;13.456;2022-11-22T12:59:48;2.00;79.10
70079;DHT22;57451;52.496;13.456;2022-11-22T13:02:27;2.10;79.10
70079;DHT22;57451;52.496;13.456;2022-11-22T13:05:00;2.10;79.00
70079;DHT22;57451;52.496;13.456;2022-11-22T13:07:41;2.10;79.10
70079;DHT22;57451;52.496;13.456;2022-11-22T13:10:23;2.10;79.10
70079;DHT22;57451;52.496;13.456;2022-11-22T13:12:56;2.10;79.00
70079;DHT22;57451;52.496;13.456;2022-11-22T13:15:28;2.20;78.90
70079;DHT22;57451;52.496;13.456;2022-11-22T13:17:56;2.20;79.10
70079;DHT22;57451;52.496;13.456;2022-11-22T13:20:26;2.30;78.90
70079;DHT22;57451;52.496;13.456;2022-11-22T13:23:05;2.30;78.80
70079;DHT22;57451;52.496;13.456;2022-11-22T13:25:46;2.30;78.70
70079;DHT22;57451;52.496;13.456;2022-11-22T13:28:19;2.30;78.50
70079;DHT22;57451;52.496;13.456;2022-11-22T13:31:06;2.30;78.40
70079;DHT22;57451;52.496;13.456;2022-11-22T13:33:40;2.30;78.70
70079;DHT22;57451;52.496;13.456;2022-11-22T13:36:37;2.30;78.50
70079;DHT22;57451;52.496;13.456;2022-11-22T13:39:10;2.30;78.70
70079;DHT22;57451;52.496;13.456;2022-11-22T13:41:42;2.40;78.70
70079;DHT22;57451;52.496;13.456;2022-11-22T13:44:25;2.40;78.60
70079;DHT22;57451;52.496;13.456;2022-11-22T13:46:58;2.40;78.50
70079;DHT22;57451;52.496;13.456;2022-11-22T13:49:31;2.40;78.60
70079;DHT22;57451;52.496;13.456;2022-11-22T13:55:32;2.40;78.30
70079;DHT22;57451;52.496;13.456;2022-11-22T14:01:56;2.40;78.40
70079;DHT22;57451;52.496;13.456;2022-11-22T14:04:31;2.40;78.50
70079;DHT22;57451;52.496;13.456;2022-11-22T14:07:03;2.40;78.60
70079;DHT22;57451;52.496;13.456;2022-11-22T14:09:34;2.40;78.50
70079;DHT22;57451;52.496;13.456;2022-11-22T14:12:21;2.40;78.70
70079;DHT22;57451;52.496;13.456;2022-11-22T14:15:04;2.40;78.70
70079;DHT22;57451;52.496;13.456;2022-11-22T14:17:41;2.40;78.70
70079;DHT22;57451;52.496;13.456;2022-11-22T14:20:28;2.40;79.00
70079;DHT22;57451;52.496;13.456;2022-11-22T14:23:03;2.40;78.70
70079;DHT22;57451;52.496;13.456;2022-11-22T14:25:45;2.40;78.80
70079;DHT22;57451;52.496;13.456;2022-11-22T14:28:29;2.40;78.80
70079;DHT22;57451;52.496;13.456;2022-11-22T14:31:11;2.40;79.00
70079;DHT22;57451;52.496;13.456;2022-11-22T14:34:16;2.40;78.90
70079;DHT22;57451;52.496;13.456;2022-11-22T14:36:44;2.50;78.80
70079;DHT22;57451;52.496;13.456;2022-11-22T14:39:57;2.50;78.70
70079;DHT22;57451;52.496;13.456;2022-11-22T14:42:50;2.50;78.60
70079;DHT22;57451;52.496;13.456;2022-11-22T14:45:24;2.50;78.60
70079;DHT22;57451;52.496;13.456;2022-11-22T14:47:58;2.50;78.60
70079;DHT22;57451;52.496;13.456;2022-11-22T14:50:31;2.50;78.50
70079;DHT22;57451;52.496;13.456;2022-11-22T14:53:06;2.50;78.70
70079;DHT22;57451;52.496;13.456;2022-11-22T14:55:35;2.50;78.80
70079;DHT22;57451;52.496;13.456;2022-11-22T14:58:05;2.50;78.60
70079;DHT22;57451;52.496;13.456;2022-11-22T15:00:43;2.50;78.90
70079;DHT22;57451;52.496;13.456;2022-11-22T15:03:19;2.50;78.70
70079;DHT22;57451;52.496;13.456;2022-11-22T15:06:14;2.50;78.90
70079;DHT22;57451;52.496;13.456;2022-11-22T15:09:22;2.50;78.80
70079;DHT22;57451;52.496;13.456;2022-11-22T15:12:27;2.50;78.80
70079;DHT22;57451;52.496;13.456;2022-11-22T15:18:30;2.50;78.90
70079;DHT22;57451;52.496;13.456;2022-11-22T15:21:27;2.50;78.90
70079;DHT22;57451;52.496;13.456;2022-11-22T15:24:22;2.50;78.90
70079;DHT22;57451;52.496;13.456;2022-11-22T15:27:21;2.50;79.00
70079;DHT22;57451;52.496;13.456;2022-11-22T15:30:13;2.50;78.90
70079;DHT22;57451;52.496;13.456;2022-11-22T15:33:07;2.50;78.90
70079;DHT22;57451;52.496;13.456;2022-11-22T15:36:09;2.50;79.00
70079;DHT22;57451;52.496;13.456;2022-11-22T15:39:01;2.50;79.10
70079;DHT22;57451;52.496;13.456;2022-11-22T15:41:49;2.50;78.90
70079;DHT22;57451;52.496;13.456;2022-11-22T15:44:36;2.50;79.00
70079;DHT22;57451;52.496;13.456;2022-11-22T15:47:23;2.50;78.80
70079;DHT22;57451;52.496;13.456;2022-11-22T15:50:15;2.50;79.10
70079;DHT22;57451;52.496;13.456;2022-11-22T15:53:17;2.50;79.20
70079;DHT22;57451;52.496;13.456;2022-11-22T15:56:15;2.50;79.10
70079;DHT22;57451;52.496;13.456;2022-11-22T15:59:08;2.50;79.20
70079;DHT22;57451;52.496;13.456;2022-11-22T16:01:38;2.50;79.10
70079;DHT22;57451;52.496;13.456;2022-11-22T16:04:21;2.50;79.10
70079;DHT22;57451;52.496;13.456;2022-11-22T16:06:49;2.50;79.20
70079;DHT22;57451;52.496;13.456;2022-11-22T16:09:27;2.50;79.10
70079;DHT22;57451;52.496;13.456;2022-11-22T16:11:57;2.50;79.10